SP2 KPYM-KPYM
Flight info
| Callsign | SP2 |
|---|---|
| Flight time | N/A |
| Altitude | 2000 |
| Route | VFR |
| Aircraft | EC35/L-VGD/C |
Departure
| Time | 2026-04-25 12:22 |
|---|---|
| Airport | Plymouth Municipal Airport (KPYM) |
Arrival
| Time | N/A |
|---|---|
| Airport | Plymouth Municipal Airport (KPYM) |
| Time | Latitude | Longitude | Altitude | Speed | Heading |
|---|---|---|---|---|---|
| 2026-04-25 12:14 | 41.90777 | -70.73456 | 145 ft | 0 kts | 43° |
| 2026-04-25 12:20 | 41.90791 | -70.73430 | 189 ft | 24 kts | 37° |
| 2026-04-25 12:21 | 41.91148 | -70.73565 | 323 ft | 77 kts | 332° |
| 2026-04-25 12:21 | 41.91689 | -70.74053 | 368 ft | 109 kts | 327° |
| 2026-04-25 12:21 | 41.92338 | -70.74720 | 508 ft | 117 kts | 326° |
| 2026-04-25 12:21 | 41.92984 | -70.75381 | 703 ft | 118 kts | 325° |
| 2026-04-25 12:22 | 41.93658 | -70.76071 | 774 ft | 126 kts | 326° |
| 2026-04-25 12:22 | 41.94383 | -70.76808 | 782 ft | 134 kts | 326° |
| 2026-04-25 12:22 | 41.95138 | -70.77571 | 775 ft | 138 kts | 326° |
| 2026-04-25 12:22 | 41.95912 | -70.78348 | 761 ft | 140 kts | 326° |
| 2026-04-25 12:23 | 41.96695 | -70.79139 | 754 ft | 142 kts | 325° |
| 2026-04-25 12:23 | 41.97483 | -70.79940 | 751 ft | 142 kts | 325° |
| 2026-04-25 12:23 | 41.98273 | -70.80743 | 749 ft | 142 kts | 326° |
| 2026-04-25 12:23 | 41.99041 | -70.81566 | 745 ft | 142 kts | 323° |
| 2026-04-25 12:24 | 41.99805 | -70.82418 | 747 ft | 143 kts | 323° |
| 2026-04-25 12:24 | 42.00564 | -70.83271 | 746 ft | 142 kts | 322° |
| 2026-04-25 12:24 | 42.01321 | -70.84120 | 747 ft | 141 kts | 323° |
| 2026-04-25 12:24 | 42.02070 | -70.84967 | 748 ft | 140 kts | 322° |
| 2026-04-25 12:25 | 42.02818 | -70.85810 | 750 ft | 139 kts | 322° |
| 2026-04-25 12:25 | 42.03567 | -70.86651 | 767 ft | 140 kts | 322° |
| 2026-04-25 12:25 | 42.04315 | -70.87490 | 766 ft | 140 kts | 322° |
| 2026-04-25 12:25 | 42.05067 | -70.88331 | 762 ft | 141 kts | 322° |
| 2026-04-25 12:26 | 42.05833 | -70.89170 | 765 ft | 142 kts | 322° |
| 2026-04-25 12:26 | 42.06604 | -70.90015 | 763 ft | 143 kts | 322° |
| 2026-04-25 12:26 | 42.07376 | -70.90861 | 761 ft | 143 kts | 322° |
| 2026-04-25 12:26 | 42.08137 | -70.91700 | 761 ft | 143 kts | 322° |
| 2026-04-25 12:27 | 42.08922 | -70.92501 | 764 ft | 141 kts | 326° |
| 2026-04-25 12:27 | 42.09754 | -70.93170 | 771 ft | 138 kts | 337° |
| 2026-04-25 12:27 | 42.10663 | -70.93594 | 778 ft | 139 kts | 343° |
| 2026-04-25 12:27 | 42.11596 | -70.93962 | 776 ft | 140 kts | 346° |
| 2026-04-25 12:28 | 42.12540 | -70.94321 | 771 ft | 142 kts | 346° |
| 2026-04-25 12:28 | 42.13490 | -70.94672 | 764 ft | 142 kts | 346° |
| 2026-04-25 12:28 | 42.14444 | -70.95020 | 760 ft | 142 kts | 346° |
| 2026-04-25 12:28 | 42.15393 | -70.95371 | 765 ft | 141 kts | 346° |
| 2026-04-25 12:29 | 42.16336 | -70.95723 | 766 ft | 141 kts | 346° |